createdAt,value
2018-10-11T00:00:29.220Z,98872.12
2018-10-11T00:02:58.757Z,98872.34
2018-10-11T00:05:29.120Z,98868.25
2018-10-11T00:07:58.681Z,98867.50
2018-10-11T00:10:28.717Z,98872.44
2018-10-11T00:12:58.245Z,98866.05
2018-10-11T00:15:27.182Z,98871.87
2018-10-11T00:17:57.127Z,98879.83
2018-10-11T00:20:27.328Z,98879.70
2018-10-11T00:22:56.104Z,98867.73
2018-10-11T00:25:26.513Z,98875.70
2018-10-11T00:27:55.879Z,98879.58
2018-10-11T00:30:27.241Z,98881.63
2018-10-11T00:32:57.522Z,98878.34
2018-10-11T00:35:27.324Z,98868.83
2018-10-11T00:37:57.245Z,98865.20
2018-10-11T00:40:27.669Z,98872.31
2018-10-11T00:42:57.718Z,98868.34
2018-10-11T00:45:27.021Z,98865.91
2018-10-11T00:47:56.575Z,98867.97
2018-10-11T00:50:28.022Z,98863.98
2018-10-11T00:52:58.714Z,98862.64
2018-10-11T00:55:28.464Z,98863.84
2018-10-11T00:57:56.930Z,98861.19
2018-10-11T01:00:26.544Z,98855.84
2018-10-11T01:02:56.824Z,98848.86
2018-10-11T01:05:27.017Z,98844.51
2018-10-11T01:07:56.057Z,98851.91
2018-10-11T01:10:25.049Z,98847.69
2018-10-11T01:12:54.153Z,98842.60
2018-10-11T01:15:23.887Z,98834.39
2018-10-11T01:17:53.029Z,98833.78
2018-10-11T01:20:21.722Z,98841.40
2018-10-11T01:22:51.488Z,98838.36
2018-10-11T01:25:20.917Z,98836.79
2018-10-11T01:27:50.303Z,98839.67
2018-10-11T01:30:19.291Z,98839.91
2018-10-11T01:32:48.900Z,98835.09
2018-10-11T01:35:17.503Z,98837.98
2018-10-11T01:37:47.251Z,98832.77
2018-10-11T01:40:16.013Z,98824.93
2018-10-11T01:42:44.541Z,98817.58
2018-10-11T01:45:13.998Z,98814.20
2018-10-11T01:47:43.146Z,98808.27
2018-10-11T01:50:12.936Z,98808.89
2018-10-11T01:52:44.098Z,98811.30
2018-10-11T01:55:15.397Z,98794.02
2018-10-11T01:57:45.377Z,98790.27
2018-10-11T02:00:17.065Z,98797.17
2018-10-11T02:02:46.768Z,98795.93
2018-10-11T02:05:16.094Z,98789.17
2018-10-11T02:07:45.749Z,98791.34
2018-10-11T02:10:15.305Z,98804.16
2018-10-11T02:12:44.785Z,98795.45
2018-10-11T02:15:13.829Z,98794.10
2018-10-11T02:17:43.929Z,98789.39
2018-10-11T02:20:14.173Z,98786.48
2018-10-11T02:22:45.612Z,98791.55
2018-10-11T02:25:15.521Z,98787.79
2018-10-11T02:27:46.534Z,98786.34
2018-10-11T02:30:15.370Z,98786.55
2018-10-11T02:32:45.017Z,98790.92
2018-10-11T02:35:15.125Z,98786.97
2018-10-11T02:37:44.736Z,98787.81
2018-10-11T02:40:14.921Z,98776.33
2018-10-11T02:42:44.663Z,98770.53
2018-10-11T02:45:14.114Z,98764.38
2018-10-11T02:47:43.554Z,98779.89
2018-10-11T02:50:12.610Z,98772.80
2018-10-11T02:52:42.260Z,98778.47
2018-10-11T02:55:20.221Z,98766.53
2018-10-11T02:57:59.957Z,98762.77
2018-10-11T03:00:29.415Z,98753.69
2018-10-11T03:03:02.834Z,98746.00
2018-10-11T03:05:33.613Z,98752.05
2018-10-11T03:08:02.173Z,98750.48
2018-10-11T03:10:31.244Z,98752.54
2018-10-11T03:13:01.267Z,98752.30
2018-10-11T03:15:31.140Z,98758.13
2018-10-11T03:18:00.216Z,98758.25
2018-10-11T03:20:29.472Z,98751.94
2018-10-11T03:22:58.736Z,98758.69
2018-10-11T03:25:29.301Z,98766.97
2018-10-11T03:27:59.920Z,98775.64
2018-10-11T03:30:30.172Z,98764.84
2018-10-11T03:33:00.445Z,98771.03
2018-10-11T03:35:30.122Z,98772.76
2018-10-11T03:37:59.377Z,98772.03
2018-10-11T03:40:30.210Z,98779.39
2018-10-11T03:43:00.198Z,98778.66
2018-10-11T03:45:31.356Z,98781.64
2018-10-11T03:48:01.972Z,98778.62
2018-10-11T03:50:31.067Z,98784.57
2018-10-11T03:53:00.901Z,98780.11
2018-10-11T03:55:30.505Z,98781.36
2018-10-11T03:58:00.312Z,98780.91
2018-10-11T04:00:30.669Z,98781.58
2018-10-11T04:02:59.995Z,98778.36
2018-10-11T04:05:29.980Z,98784.92
2018-10-11T04:07:59.292Z,98788.61
2018-10-11T04:10:28.177Z,98788.13
2018-10-11T04:12:57.354Z,98786.04
2018-10-11T04:15:26.625Z,98780.02
2018-10-11T04:17:55.839Z,98769.34
2018-10-11T04:20:26.653Z,98764.77
2018-10-11T04:22:57.538Z,98766.20
2018-10-11T04:25:28.681Z,98764.60
2018-10-11T04:27:57.766Z,98766.89
2018-10-11T04:30:27.401Z,98767.65
2018-10-11T04:32:56.706Z,98769.13
2018-10-11T04:35:26.492Z,98770.22
2018-10-11T04:37:55.776Z,98767.07
2018-10-11T04:40:25.480Z,98769.73
2018-10-11T04:42:55.203Z,98767.08
2018-10-11T04:45:23.632Z,98772.78
2018-10-11T04:47:54.321Z,98778.94
2018-10-11T04:50:24.043Z,98777.63
2018-10-11T04:52:53.298Z,98784.27
2018-10-11T04:55:22.523Z,98781.19
2018-10-11T04:57:52.286Z,98786.90
2018-10-11T05:00:21.132Z,98788.72
2018-10-11T05:02:50.395Z,98781.89
2018-10-11T05:05:20.096Z,98788.88
2018-10-11T05:07:49.360Z,98793.11
2018-10-11T05:10:20.119Z,98794.00
2018-10-11T05:12:50.401Z,98791.30
2018-10-11T05:15:21.382Z,98795.77
2018-10-11T05:17:54.097Z,98793.64
2018-10-11T05:20:23.645Z,98803.77
2018-10-11T05:22:52.691Z,98803.48
2018-10-11T05:25:23.226Z,98800.72
2018-10-11T05:27:53.920Z,98804.52
2018-10-11T05:30:23.630Z,98804.47
2018-10-11T05:32:53.275Z,98800.24
2018-10-11T05:35:23.891Z,98808.11
2018-10-11T05:37:53.645Z,98802.84
2018-10-11T05:40:24.386Z,98792.78
2018-10-11T05:42:54.702Z,98801.17
2018-10-11T05:45:25.660Z,98801.17
2018-10-11T05:47:54.799Z,98802.38
2018-10-11T05:50:24.386Z,98804.47
2018-10-11T05:52:54.538Z,98805.31
2018-10-11T05:55:24.550Z,98802.30
2018-10-11T05:57:54.799Z,98810.02
2018-10-11T06:00:25.334Z,98810.02
2018-10-11T06:03:02.422Z,98821.86
2018-10-11T06:05:31.639Z,98821.06
2018-10-11T06:08:02.100Z,98823.91
2018-10-11T06:10:32.521Z,98811.32
2018-10-11T06:13:02.636Z,98827.22
2018-10-11T06:15:32.761Z,98822.65
2018-10-11T06:18:02.820Z,98833.47
2018-10-11T06:20:32.312Z,98830.19
2018-10-11T06:23:02.132Z,98829.30
2018-10-11T06:25:31.038Z,98834.84
2018-10-11T06:28:00.583Z,98831.75
2018-10-11T06:30:31.606Z,98823.80
2018-10-11T06:33:01.727Z,98827.13
2018-10-11T06:35:31.948Z,98825.63
2018-10-11T06:38:03.944Z,98830.11
2018-10-11T06:40:34.509Z,98834.75
2018-10-11T06:43:03.900Z,98841.27
2018-10-11T06:45:34.904Z,98837.41
2018-10-11T06:48:07.767Z,98833.13
2018-10-11T06:50:36.933Z,98836.27
2018-10-11T06:53:07.056Z,98847.64
2018-10-11T06:55:35.935Z,98845.97
2018-10-11T06:58:06.610Z,98848.78
2018-10-11T07:00:36.773Z,98842.11
2018-10-11T07:03:07.024Z,98849.87
2018-10-11T07:05:37.025Z,98852.27
2018-10-11T07:08:05.770Z,98858.13
2018-10-11T07:10:35.076Z,98851.30
2018-10-11T07:13:04.509Z,98851.02
2018-10-11T07:15:34.487Z,98858.14
2018-10-11T07:18:05.077Z,98867.64
2018-10-11T07:20:34.634Z,98871.53
2018-10-11T07:23:05.418Z,98866.11
2018-10-11T07:25:34.620Z,98863.36
2018-10-11T07:28:03.441Z,98866.17
2018-10-11T07:30:33.079Z,98867.31
2018-10-11T07:33:02.825Z,98869.27
2018-10-11T07:35:32.815Z,98870.10
2018-10-11T07:38:02.553Z,98865.30
2018-10-11T07:40:31.761Z,98870.88
2018-10-11T07:43:00.453Z,98875.84
2018-10-11T07:45:30.260Z,98875.51
2018-10-11T07:48:00.234Z,98880.81
2018-10-11T07:50:28.807Z,98891.91
2018-10-11T07:52:57.322Z,98890.02
2018-10-11T07:55:26.065Z,98898.98
2018-10-11T07:57:54.910Z,98900.09
2018-10-11T08:00:25.892Z,98906.27
2018-10-11T08:02:54.436Z,98906.07
2018-10-11T08:05:24.616Z,98912.42
2018-10-11T08:07:54.024Z,98914.25
2018-10-11T08:10:23.876Z,98912.67
2018-10-11T08:12:53.770Z,98915.72
2018-10-11T08:15:23.139Z,98922.91
2018-10-11T08:17:52.304Z,98927.94
2018-10-11T08:20:22.114Z,98922.17
2018-10-11T08:22:51.529Z,98924.78
2018-10-11T08:25:21.351Z,98925.00
2018-10-11T08:27:51.610Z,98929.32
2018-10-11T08:30:21.250Z,98930.95
2018-10-11T08:32:50.946Z,98935.36
2018-10-11T08:35:21.296Z,98941.70
2018-10-11T08:37:54.074Z,98946.98
2018-10-11T08:40:24.547Z,98948.70
2018-10-11T08:42:54.937Z,98944.95
2018-10-11T08:45:24.437Z,98953.20
2018-10-11T08:47:53.406Z,98932.16
2018-10-11T08:50:23.245Z,98937.27
2018-10-11T08:52:51.976Z,98939.45
2018-10-11T08:55:20.804Z,98940.60
2018-10-11T08:57:50.431Z,98941.46
2018-10-11T09:00:20.432Z,98949.45
2018-10-11T09:02:50.438Z,98951.20
2018-10-11T09:05:20.752Z,98947.19
2018-10-11T09:07:49.777Z,98945.14
2018-10-11T09:10:19.247Z,98947.89
2018-10-11T09:12:49.983Z,98948.06
2018-10-11T09:15:19.558Z,98945.23
2018-10-11T09:17:48.610Z,98941.34
2018-10-11T09:20:17.825Z,98940.27
2018-10-11T09:22:46.991Z,98943.98
2018-10-11T09:25:16.649Z,98947.30
2018-10-11T09:27:46.085Z,98943.22
2018-10-11T09:30:16.604Z,98944.52
2018-10-11T09:32:45.934Z,98938.33
2018-10-11T09:35:14.865Z,98943.94
2018-10-11T09:37:44.818Z,98936.97
2018-10-11T09:40:14.437Z,98937.95
2018-10-11T09:42:43.113Z,98941.14
2018-10-11T09:45:12.374Z,98947.38
2018-10-11T09:47:41.675Z,98939.89
2018-10-11T09:50:10.599Z,98930.79
2018-10-11T09:52:40.846Z,98942.33
2018-10-11T09:55:10.907Z,98929.44
2018-10-11T09:57:41.123Z,98928.47
2018-10-11T10:00:16.116Z,98925.67
2018-10-11T10:02:45.141Z,98939.10
2018-10-11T10:05:14.447Z,98930.12
2018-10-11T10:07:44.010Z,98921.17
2018-10-11T10:10:14.191Z,98923.48
2018-10-11T10:12:43.283Z,98924.83
2018-10-11T10:15:12.642Z,98931.04
2018-10-11T10:17:42.917Z,98932.22
2018-10-11T10:20:12.368Z,98928.63
2018-10-11T10:22:41.667Z,98932.59
2018-10-11T10:25:11.041Z,98934.42
2018-10-11T10:27:40.308Z,98933.27
2018-10-11T10:30:15.185Z,98940.99
2018-10-11T10:32:44.412Z,98939.48
2018-10-11T10:35:13.222Z,98943.59
2018-10-11T10:37:42.921Z,98937.17
2018-10-11T10:40:12.240Z,98936.50
2018-10-11T10:42:42.409Z,98928.73
2018-10-11T10:45:11.746Z,98923.39
2018-10-11T10:47:40.780Z,98922.04
2018-10-11T10:50:09.989Z,98921.31
2018-10-11T10:52:38.927Z,98915.48
2018-10-11T10:55:08.218Z,98908.47
2018-10-11T10:57:37.566Z,98908.72
2018-10-11T11:00:06.616Z,98909.05
2018-10-11T11:02:36.187Z,98910.66
2018-10-11T11:05:06.540Z,98902.56
2018-10-11T11:07:36.654Z,98908.20
2018-10-11T11:10:05.946Z,98902.71
2018-10-11T11:12:35.234Z,98903.48
2018-10-11T11:15:04.825Z,98895.55
2018-10-11T11:17:33.772Z,98895.78
2018-10-11T11:20:02.881Z,98892.86
2018-10-11T11:22:31.662Z,98898.41
2018-10-11T11:25:01.227Z,98896.28
2018-10-11T11:27:30.398Z,98894.38
2018-10-11T11:29:59.968Z,98884.97
2018-10-11T11:32:28.812Z,98879.21
2018-10-11T11:34:58.096Z,98879.39
2018-10-11T11:37:27.048Z,98868.71
2018-10-11T11:39:57.199Z,98865.20
2018-10-11T11:42:26.924Z,98861.83
2018-10-11T11:44:55.836Z,98850.08
2018-10-11T11:47:24.815Z,98851.53
2018-10-11T11:49:55.033Z,98848.56
2018-10-11T11:52:25.159Z,98855.47
2018-10-11T11:54:53.942Z,98849.30
2018-10-11T11:57:22.903Z,98852.97
2018-10-11T11:59:52.610Z,98855.89
2018-10-11T12:02:22.352Z,98857.11
2018-10-11T12:04:52.271Z,98858.78
2018-10-11T12:07:20.992Z,98860.45
2018-10-11T12:09:50.616Z,98857.23
2018-10-11T12:12:33.228Z,98858.13
2018-10-11T12:15:03.004Z,98857.03
2018-10-11T12:17:32.436Z,98863.50
2018-10-11T12:20:02.426Z,98868.26
2018-10-11T12:22:31.936Z,98865.96
2018-10-11T12:25:02.121Z,98864.19
2018-10-11T12:27:31.803Z,98864.43
2018-10-11T12:30:02.294Z,98874.17
2018-10-11T12:32:31.859Z,98866.88
2018-10-11T12:35:02.127Z,98874.21
2018-10-11T12:37:31.635Z,98879.36
2018-10-11T12:40:01.730Z,98878.80
2018-10-11T12:42:32.206Z,98876.77
2018-10-11T12:45:01.967Z,98876.65
2018-10-11T12:47:32.014Z,98873.56
2018-10-11T12:50:00.924Z,98879.78
2018-10-11T12:52:31.663Z,98873.87
2018-10-11T12:55:00.953Z,98869.12
2018-10-11T12:57:29.904Z,98883.33
2018-10-11T12:59:59.930Z,98880.26
2018-10-11T13:02:29.529Z,98877.33
2018-10-11T13:04:58.961Z,98874.93
2018-10-11T13:07:28.986Z,98885.72
2018-10-11T13:09:58.270Z,98880.47
2018-10-11T13:12:28.122Z,98878.03
2018-10-11T13:14:57.396Z,98885.95
2018-10-11T13:17:26.622Z,98880.80
2018-10-11T13:19:56.775Z,98881.40
2018-10-11T13:22:27.741Z,98881.75
2018-10-11T13:24:57.147Z,98870.95
2018-10-11T13:27:26.516Z,98869.55
2018-10-11T13:29:56.029Z,98868.89
2018-10-11T13:32:26.258Z,98874.53
2018-10-11T13:34:55.475Z,98872.94
2018-10-11T13:37:24.946Z,98871.50
2018-10-11T13:39:57.690Z,98869.94
2018-10-11T13:42:23.686Z,98867.95
2018-10-11T13:44:52.172Z,98869.00
2018-10-11T13:47:20.946Z,98869.48
2018-10-11T13:49:51.322Z,98870.48
2018-10-11T13:52:22.622Z,98869.23
2018-10-11T13:54:51.637Z,98870.77
2018-10-11T13:57:25.943Z,98875.35
2018-10-11T13:59:51.523Z,98873.08
2018-10-11T14:02:22.542Z,98881.37
2018-10-11T14:04:51.768Z,98884.50
2018-10-11T14:07:21.889Z,98881.60
2018-10-11T14:09:51.163Z,98884.86
2018-10-11T14:12:20.289Z,98878.59
2018-10-11T14:14:49.096Z,98880.75
2018-10-11T14:17:19.079Z,98880.77
2018-10-11T14:19:49.920Z,98877.50
2018-10-11T14:22:19.655Z,98875.66
2018-10-11T14:24:50.655Z,98883.67
2018-10-11T14:27:20.384Z,98878.88
2018-10-11T14:29:49.799Z,98875.97
2018-10-11T14:32:19.307Z,98877.91
2018-10-11T14:34:49.640Z,98880.86
2018-10-11T14:37:19.426Z,98874.63
2018-10-11T14:39:49.309Z,98878.59
2018-10-11T14:42:18.371Z,98878.48
2018-10-11T14:44:48.290Z,98878.78
2018-10-11T14:47:18.311Z,98877.77
2018-10-11T14:49:47.265Z,98869.74
2018-10-11T14:52:16.445Z,98872.85
2018-10-11T14:54:46.836Z,98876.07
2018-10-11T14:57:16.832Z,98870.17
2018-10-11T14:59:46.733Z,98871.55
2018-10-11T15:02:15.666Z,98872.23
2018-10-11T15:04:45.798Z,98866.98
2018-10-11T15:07:15.029Z,98867.59
2018-10-11T15:09:44.256Z,98862.92
2018-10-11T15:12:14.759Z,98873.27
2018-10-11T15:14:45.096Z,98875.14
2018-10-11T15:17:13.847Z,98872.94
2018-10-11T15:19:43.410Z,98868.41
2018-10-11T15:22:12.629Z,98867.81
2018-10-11T15:24:41.700Z,98869.02
2018-10-11T15:27:10.511Z,98864.46
2018-10-11T15:29:39.964Z,98871.87
2018-10-11T15:32:10.560Z,98872.23
2018-10-11T15:34:39.896Z,98877.42
2018-10-11T15:37:08.951Z,98873.26
2018-10-11T15:39:38.097Z,98869.27
2018-10-11T15:42:07.108Z,98875.26
2018-10-11T15:44:36.213Z,98870.88
2018-10-11T15:47:05.730Z,98875.65
2018-10-11T15:49:35.824Z,98877.93
2018-10-11T15:52:05.744Z,98876.58
2018-10-11T15:54:35.255Z,98872.52
2018-10-11T15:57:05.121Z,98879.49
2018-10-11T15:59:34.503Z,98876.42
2018-10-11T16:02:03.651Z,98876.94
2018-10-11T16:04:33.245Z,98882.75
2018-10-11T16:07:04.065Z,98879.05
2018-10-11T16:09:33.055Z,98878.70
2018-10-11T16:12:02.642Z,98875.17
2018-10-11T16:14:33.501Z,98877.56
2018-10-11T16:17:02.872Z,98877.45
2018-10-11T16:19:33.007Z,98874.84
2018-10-11T16:22:02.169Z,98876.04
2018-10-11T16:24:30.636Z,98881.25
2018-10-11T16:26:59.306Z,98880.27
2018-10-11T16:29:29.255Z,98870.41
2018-10-11T16:31:58.528Z,98856.79
2018-10-11T16:34:28.102Z,98857.86
2018-10-11T16:36:57.617Z,98857.20
2018-10-11T16:39:26.667Z,98855.38
2018-10-11T16:41:56.723Z,98858.09
2018-10-11T16:44:25.852Z,98871.05
2018-10-11T16:46:55.266Z,98881.32
2018-10-11T16:49:25.307Z,98889.59
2018-10-11T16:51:53.760Z,98889.75
2018-10-11T16:54:22.664Z,98894.45
2018-10-11T16:56:51.590Z,98900.36
2018-10-11T16:59:20.781Z,98904.37
2018-10-11T17:01:50.336Z,98910.94
2018-10-11T17:04:19.625Z,98907.25
2018-10-11T17:06:49.242Z,98908.77
2018-10-11T17:09:18.559Z,98914.99
2018-10-11T17:11:47.394Z,98918.02
2018-10-11T17:14:16.823Z,98918.69
2018-10-11T17:16:46.690Z,98923.38
2018-10-11T17:19:15.879Z,98928.78
2018-10-11T17:21:45.704Z,98924.70
2018-10-11T17:24:16.096Z,98934.97
2018-10-11T17:26:45.817Z,98934.44
2018-10-11T17:29:15.334Z,98929.23
2018-10-11T17:31:44.369Z,98934.61
2018-10-11T17:34:14.741Z,98933.39
2018-10-11T17:36:44.977Z,98932.55
2018-10-11T17:39:14.256Z,98927.15
2018-10-11T17:41:43.877Z,98934.68
2018-10-11T17:44:14.899Z,98942.71
2018-10-11T17:46:44.195Z,98931.59
2018-10-11T17:49:13.571Z,98941.53
2018-10-11T17:51:42.767Z,98943.39
2018-10-11T17:54:11.892Z,98949.94
2018-10-11T17:56:42.400Z,98949.69
2018-10-11T17:59:12.141Z,98956.11
2018-10-11T18:01:41.237Z,98950.06
2018-10-11T18:04:11.225Z,98954.60
2018-10-11T18:06:40.161Z,98949.89
2018-10-11T18:09:11.838Z,98948.05
2018-10-11T18:11:41.077Z,98946.03
2018-10-11T18:14:12.243Z,98950.86
2018-10-11T18:16:42.054Z,98955.56
2018-10-11T18:19:10.758Z,98950.02
2018-10-11T18:21:39.860Z,98940.28
2018-10-11T18:24:09.214Z,98942.21
2018-10-11T18:26:38.817Z,98947.55
2018-10-11T18:29:07.317Z,98951.84
2018-10-11T18:31:36.437Z,98959.73
2018-10-11T18:34:05.261Z,98959.06
2018-10-11T18:36:34.673Z,98954.31
2018-10-11T18:39:03.940Z,98941.16
2018-10-11T18:41:33.510Z,98938.25
2018-10-11T18:44:03.784Z,98938.52
2018-10-11T18:46:32.829Z,98936.78
2018-10-11T18:49:01.696Z,98942.04
2018-10-11T18:51:32.423Z,98943.81
2018-10-11T18:54:02.644Z,98946.12
2018-10-11T18:56:32.276Z,98943.44
2018-10-11T18:59:01.956Z,98951.77
2018-10-11T19:01:32.094Z,98967.72
2018-10-11T19:04:01.409Z,98965.66
2018-10-11T19:06:30.904Z,98972.28
2018-10-11T19:08:59.982Z,98980.91
2018-10-11T19:11:28.802Z,98977.59
2018-10-11T19:13:58.626Z,98983.76
2018-10-11T19:16:28.232Z,98983.33
2018-10-11T19:18:57.073Z,98982.08
2018-10-11T19:21:26.262Z,98985.08
2018-10-11T19:23:56.802Z,98990.88
2018-10-11T19:26:25.767Z,98998.11
2018-10-11T19:28:55.202Z,98992.14
2018-10-11T19:31:24.697Z,98992.35
2018-10-11T19:33:53.600Z,98994.70
2018-10-11T19:36:22.430Z,98991.67
2018-10-11T19:38:51.575Z,98990.98
2018-10-11T19:41:20.521Z,98991.33
2018-10-11T19:43:49.962Z,98988.46
2018-10-11T19:46:19.058Z,98987.91
2018-10-11T19:48:48.134Z,98987.13
2018-10-11T19:51:18.288Z,98991.93
2018-10-11T19:53:48.339Z,98991.14
2018-10-11T19:56:17.716Z,98986.04
2018-10-11T19:58:46.910Z,98989.72
2018-10-11T20:01:16.354Z,98995.91
2018-10-11T20:03:46.190Z,98986.42
2018-10-11T20:06:17.118Z,98994.91
2018-10-11T20:08:46.097Z,98990.26
2018-10-11T20:11:15.340Z,98994.75
2018-10-11T20:13:44.851Z,98991.12
2018-10-11T20:16:14.508Z,98989.03
2018-10-11T20:18:44.119Z,98989.02
2018-10-11T20:21:13.642Z,98991.20
2018-10-11T20:23:42.116Z,98986.33
2018-10-11T20:26:11.217Z,98989.66
2018-10-11T20:28:41.975Z,99002.63
2018-10-11T20:31:11.065Z,98999.45
2018-10-11T20:33:41.594Z,98996.24
2018-10-11T20:36:11.288Z,98996.09
2018-10-11T20:38:40.353Z,99004.77
2018-10-11T20:41:09.464Z,99008.30
2018-10-11T20:43:39.755Z,99008.98
2018-10-11T20:46:08.967Z,99014.19
2018-10-11T20:48:38.642Z,99014.99
2018-10-11T20:51:07.542Z,99022.69
2018-10-11T20:53:36.693Z,99025.76
2018-10-11T20:56:05.966Z,99030.19
2018-10-11T20:58:34.866Z,99022.23
2018-10-11T21:01:04.239Z,99024.45
2018-10-11T21:03:33.460Z,99022.73
2018-10-11T21:06:02.529Z,99025.15
2018-10-11T21:08:32.230Z,99026.95
2018-10-11T21:11:01.846Z,99035.98
2018-10-11T21:13:31.782Z,99033.42
2018-10-11T21:16:01.293Z,99035.63
2018-10-11T21:18:30.693Z,99031.31
2018-10-11T21:21:00.680Z,99031.00
2018-10-11T21:23:30.865Z,99032.34
2018-10-11T21:26:00.572Z,99037.52
2018-10-11T21:28:30.307Z,99035.98
2018-10-11T21:30:59.992Z,99039.80
2018-10-11T21:33:29.341Z,99041.44
2018-10-11T21:35:58.888Z,99040.80
2018-10-11T21:38:28.662Z,99046.00
2018-10-11T21:40:57.712Z,99042.20
2018-10-11T21:43:27.103Z,99041.61
2018-10-11T21:45:56.900Z,99037.40
2018-10-11T21:48:26.672Z,99038.72
2018-10-11T21:50:55.998Z,99034.40
2018-10-11T21:53:24.708Z,99035.28
2018-10-11T21:55:53.525Z,99038.23
2018-10-11T21:58:23.697Z,99038.61
2018-10-11T22:00:59.128Z,99039.98
2018-10-11T22:03:29.118Z,99038.14
2018-10-11T22:05:57.883Z,99040.14
2018-10-11T22:08:27.401Z,99041.84
2018-10-11T22:10:57.421Z,99036.00
2018-10-11T22:13:26.747Z,99033.81
2018-10-11T22:15:56.297Z,99038.61
2018-10-11T22:18:25.833Z,99026.77
2018-10-11T22:20:55.062Z,99031.32
2018-10-11T22:23:24.893Z,99025.70
2018-10-11T22:25:54.049Z,99023.70
2018-10-11T22:28:22.533Z,99035.47
2018-10-11T22:30:51.310Z,99039.89
2018-10-11T22:33:20.656Z,99036.47
2018-10-11T22:35:49.876Z,99044.14
2018-10-11T22:38:18.964Z,99039.98
2018-10-11T22:40:47.989Z,99042.57
2018-10-11T22:43:17.038Z,99043.30
2018-10-11T22:45:46.629Z,99042.37
2018-10-11T22:48:16.052Z,99036.38
2018-10-11T22:50:45.918Z,99037.16
2018-10-11T22:53:14.725Z,99039.90
2018-10-11T22:55:44.617Z,99040.34
2018-10-11T22:58:14.289Z,99045.35
2018-10-11T23:00:43.105Z,99051.28
2018-10-11T23:03:12.706Z,99048.16
2018-10-11T23:05:41.452Z,99050.19
2018-10-11T23:08:10.657Z,99051.38
2018-10-11T23:10:39.760Z,99051.74
2018-10-11T23:13:09.492Z,99057.70
2018-10-11T23:15:38.683Z,99067.80
2018-10-11T23:18:07.904Z,99071.59
2018-10-11T23:20:37.067Z,99067.52
2018-10-11T23:23:07.416Z,99080.32
2018-10-11T23:25:37.013Z,99080.01
2018-10-11T23:28:05.975Z,99081.48
2018-10-11T23:30:35.132Z,99084.13
2018-10-11T23:33:05.053Z,99086.62
2018-10-11T23:35:35.435Z,99084.51
2018-10-11T23:38:04.550Z,99098.25
2018-10-11T23:40:33.965Z,99097.09
2018-10-11T23:43:04.064Z,99109.55
2018-10-11T23:45:33.858Z,99107.93
2018-10-11T23:48:02.669Z,99109.83
2018-10-11T23:50:33.191Z,99119.88
2018-10-11T23:53:02.246Z,99127.41
2018-10-11T23:55:32.963Z,99124.87
2018-10-11T23:58:03.113Z,99118.84
